createdAt,value
2019-02-04T00:00:45.456Z,34.85
2019-02-04T00:01:50.311Z,34.27
2019-02-04T00:02:53.926Z,34.90
2019-02-04T00:03:57.608Z,37.30
2019-02-04T00:05:01.038Z,43.55
2019-02-04T00:06:04.699Z,40.12
2019-02-04T00:07:08.339Z,37.55
2019-02-04T00:08:12.166Z,33.85
2019-02-04T00:09:15.945Z,38.08
2019-02-04T00:10:19.511Z,34.05
2019-02-04T00:11:23.154Z,38.90
2019-02-04T00:12:26.689Z,40.30
2019-02-04T00:13:30.291Z,41.00
2019-02-04T00:14:33.774Z,38.90
2019-02-04T00:15:37.460Z,37.13
2019-02-04T00:16:41.389Z,39.33
2019-02-04T00:17:44.883Z,36.17
2019-02-04T00:18:48.476Z,37.70
2019-02-04T00:19:52.115Z,38.80
2019-02-04T00:20:56.049Z,43.50
2019-02-04T00:21:59.481Z,39.00
2019-02-04T00:23:03.435Z,39.95
2019-02-04T00:24:06.959Z,35.25
2019-02-04T00:25:10.561Z,38.02
2019-02-04T00:26:14.126Z,36.00
2019-02-04T00:27:17.638Z,36.05
2019-02-04T00:28:21.141Z,38.20
2019-02-04T00:29:24.682Z,48.33
2019-02-04T00:30:28.899Z,41.35
2019-02-04T00:31:32.470Z,38.25
2019-02-04T00:32:35.903Z,41.08
2019-02-04T00:33:39.406Z,38.73
2019-02-04T00:34:42.938Z,37.58
2019-02-04T00:35:46.468Z,38.98
2019-02-04T00:36:50.204Z,33.85
2019-02-04T00:37:54.167Z,36.50
2019-02-04T00:38:57.645Z,37.83
2019-02-04T00:40:01.107Z,43.02
2019-02-04T00:41:04.708Z,38.05
2019-02-04T00:42:08.277Z,39.05
2019-02-04T00:43:11.867Z,42.00
2019-02-04T00:44:15.297Z,41.20
2019-02-04T00:45:18.834Z,45.55
2019-02-04T00:46:22.265Z,39.60
2019-02-04T00:47:25.703Z,35.33
2019-02-04T00:48:29.283Z,34.58
2019-02-04T00:49:32.809Z,36.58
2019-02-04T00:50:36.610Z,38.70
2019-02-04T00:51:40.527Z,39.55
2019-02-04T00:52:44.141Z,40.58
2019-02-04T00:53:47.693Z,46.23
2019-02-04T00:54:51.206Z,41.42
2019-02-04T00:55:54.734Z,39.73
2019-02-04T00:56:58.373Z,38.08
2019-02-04T00:58:01.848Z,38.35
2019-02-04T00:59:05.638Z,38.35
2019-02-04T01:00:24.079Z,42.15
2019-02-04T01:01:27.716Z,42.08
2019-02-04T01:02:31.228Z,40.38
2019-02-04T01:03:34.751Z,40.98
2019-02-04T01:04:38.327Z,40.20
2019-02-04T01:05:41.768Z,37.88
2019-02-04T01:06:45.414Z,38.35
2019-02-04T01:07:49.390Z,43.58
2019-02-04T01:08:54.706Z,40.63
2019-02-04T01:09:58.305Z,40.55
2019-02-04T01:11:02.047Z,46.55
2019-02-04T01:12:05.681Z,38.02
2019-02-04T01:13:09.237Z,39.60
2019-02-04T01:14:12.817Z,38.35
2019-02-04T01:15:16.375Z,38.63
2019-02-04T01:16:19.943Z,43.83
2019-02-04T01:17:23.478Z,40.90
2019-02-04T01:18:26.935Z,43.08
2019-02-04T01:19:30.459Z,36.65
2019-02-04T01:20:34.025Z,39.18
2019-02-04T01:21:37.631Z,38.15
2019-02-04T01:22:41.290Z,42.50
2019-02-04T01:23:45.108Z,39.78
2019-02-04T01:24:48.554Z,33.38
2019-02-04T01:25:52.122Z,42.93
2019-02-04T01:26:55.736Z,41.42
2019-02-04T01:27:59.280Z,34.27
2019-02-04T01:29:03.016Z,35.98
2019-02-04T01:30:12.325Z,39.85
2019-02-04T01:31:15.852Z,33.23
2019-02-04T01:32:19.366Z,37.98
2019-02-04T01:33:22.824Z,42.48
2019-02-04T01:34:26.270Z,34.45
2019-02-04T01:35:29.707Z,39.73
2019-02-04T01:36:33.227Z,41.68
2019-02-04T01:37:36.657Z,36.30
2019-02-04T01:38:40.294Z,35.70
2019-02-04T01:39:44.079Z,37.28
2019-02-04T01:40:47.510Z,41.53
2019-02-04T01:41:50.939Z,37.67
2019-02-04T01:42:55.321Z,36.55
2019-02-04T01:43:58.972Z,37.78
2019-02-04T01:45:02.627Z,39.13
2019-02-04T01:46:06.076Z,38.30
2019-02-04T01:47:14.731Z,34.25
2019-02-04T01:48:14.901Z,40.00
2019-02-04T01:49:18.423Z,38.48
2019-02-04T01:50:22.946Z,39.80
2019-02-04T01:51:26.418Z,38.88
2019-02-04T01:52:30.007Z,41.70
2019-02-04T01:53:33.611Z,37.23
2019-02-04T01:54:37.437Z,39.98
2019-02-04T01:55:41.003Z,42.17
2019-02-04T01:56:44.438Z,42.15
2019-02-04T01:57:50.427Z,40.12
2019-02-04T01:58:53.881Z,36.83
2019-02-04T01:59:57.309Z,37.55
2019-02-04T02:01:00.894Z,43.65
2019-02-04T02:02:04.493Z,40.70
2019-02-04T02:03:08.090Z,39.73
2019-02-04T02:04:11.637Z,34.65
2019-02-04T02:05:15.620Z,43.40
2019-02-04T02:06:19.130Z,40.35
2019-02-04T02:07:22.693Z,41.05
2019-02-04T02:08:26.396Z,35.30
2019-02-04T02:09:30.437Z,34.63
2019-02-04T02:10:34.051Z,34.33
2019-02-04T02:11:37.625Z,41.33
2019-02-04T02:12:41.212Z,36.23
2019-02-04T02:13:44.736Z,37.65
2019-02-04T02:14:48.263Z,36.20
2019-02-04T02:15:51.710Z,40.00
2019-02-04T02:16:55.256Z,36.93
2019-02-04T02:17:58.766Z,39.63
2019-02-04T02:19:02.347Z,35.28
2019-02-04T02:20:09.192Z,43.30
2019-02-04T02:21:12.680Z,34.40
2019-02-04T02:22:16.109Z,44.83
2019-02-04T02:23:19.613Z,37.55
2019-02-04T02:24:23.519Z,42.25
2019-02-04T02:25:27.120Z,38.40
2019-02-04T02:26:30.559Z,39.58
2019-02-04T02:27:34.063Z,36.95
2019-02-04T02:28:37.494Z,38.17
2019-02-04T02:29:40.989Z,47.05
2019-02-04T02:30:44.526Z,35.98
2019-02-04T02:31:48.098Z,38.90
2019-02-04T02:32:51.634Z,33.75
2019-02-04T02:33:55.053Z,36.25
2019-02-04T02:34:58.516Z,36.70
2019-02-04T02:36:01.976Z,39.23
2019-02-04T02:37:05.513Z,39.30
2019-02-04T02:38:09.339Z,34.85
2019-02-04T02:39:12.798Z,39.90
2019-02-04T02:40:19.305Z,41.02
2019-02-04T02:41:22.760Z,37.03
2019-02-04T02:42:26.269Z,33.60
2019-02-04T02:43:29.698Z,42.05
2019-02-04T02:44:33.127Z,37.10
2019-02-04T02:45:36.572Z,36.40
2019-02-04T02:46:40.087Z,34.23
2019-02-04T02:47:43.601Z,37.67
2019-02-04T02:48:47.038Z,37.40
2019-02-04T02:49:50.545Z,35.13
2019-02-04T02:50:54.008Z,33.20
2019-02-04T02:51:57.805Z,32.70
2019-02-04T02:53:01.607Z,31.85
2019-02-04T02:54:05.183Z,35.20
2019-02-04T02:55:17.333Z,34.63
2019-02-04T02:56:20.928Z,35.73
2019-02-04T02:57:24.366Z,37.58
2019-02-04T02:58:27.806Z,31.00
2019-02-04T02:59:31.259Z,36.80
2019-02-04T03:00:34.996Z,44.20
2019-02-04T03:01:38.449Z,42.78
2019-02-04T03:02:41.943Z,36.17
2019-02-04T03:03:45.523Z,42.20
2019-02-04T03:04:49.026Z,37.90
2019-02-04T03:05:52.614Z,42.70
2019-02-04T03:06:56.207Z,43.73
2019-02-04T03:08:00.099Z,35.75
2019-02-04T03:09:05.409Z,40.95
2019-02-04T03:10:11.692Z,37.65
2019-02-04T03:11:15.278Z,33.65
2019-02-04T03:12:18.748Z,37.40
2019-02-04T03:13:22.207Z,40.52
2019-02-04T03:14:25.643Z,39.83
2019-02-04T03:15:29.212Z,46.98
2019-02-04T03:16:32.806Z,45.10
2019-02-04T03:17:36.385Z,45.43
2019-02-04T03:18:39.883Z,36.05
2019-02-04T03:19:43.353Z,40.50
2019-02-04T03:20:46.847Z,38.08
2019-02-04T03:21:50.304Z,35.30
2019-02-04T03:22:53.756Z,44.25
2019-02-04T03:24:00.637Z,42.20
2019-02-04T03:25:02.884Z,37.23
2019-02-04T03:26:06.563Z,36.45
2019-02-04T03:27:09.977Z,39.42
2019-02-04T03:28:13.505Z,36.45
2019-02-04T03:29:17.119Z,37.48
2019-02-04T03:30:31.339Z,44.03
2019-02-04T03:31:34.933Z,36.68
2019-02-04T03:32:38.415Z,37.55
2019-02-04T03:33:41.955Z,38.83
2019-02-04T03:34:45.426Z,43.52
2019-02-04T03:35:48.869Z,41.70
2019-02-04T03:36:52.292Z,40.88
2019-02-04T03:37:55.879Z,48.15
2019-02-04T03:38:59.548Z,38.35
2019-02-04T03:40:04.900Z,47.80
2019-02-04T03:41:08.679Z,40.30
2019-02-04T03:42:12.193Z,34.78
2019-02-04T03:43:15.657Z,40.25
2019-02-04T03:44:19.103Z,36.25
2019-02-04T03:45:22.692Z,39.23
2019-02-04T03:46:26.280Z,38.38
2019-02-04T03:47:29.709Z,39.67
2019-02-04T03:48:33.146Z,35.20
2019-02-04T03:49:36.610Z,36.08
2019-02-04T03:50:40.107Z,45.15
2019-02-04T03:51:43.614Z,41.37
2019-02-04T03:52:47.195Z,36.50
2019-02-04T03:53:50.697Z,36.85
2019-02-04T03:54:54.299Z,37.65
2019-02-04T03:55:59.627Z,38.95
2019-02-04T03:57:03.227Z,39.40
2019-02-04T03:58:06.793Z,37.03
2019-02-04T03:59:10.380Z,42.27
2019-02-04T04:00:19.586Z,41.25
2019-02-04T04:01:23.184Z,38.42
2019-02-04T04:02:26.623Z,38.38
2019-02-04T04:03:30.126Z,47.53
2019-02-04T04:04:33.627Z,39.45
2019-02-04T04:05:37.318Z,35.45
2019-02-04T04:06:40.819Z,36.17
2019-02-04T04:07:44.342Z,36.88
2019-02-04T04:08:47.862Z,37.67
2019-02-04T04:09:51.291Z,32.65
2019-02-04T04:10:54.935Z,38.15
2019-02-04T04:11:58.369Z,33.40
2019-02-04T04:13:01.871Z,34.92
2019-02-04T04:14:05.579Z,40.08
2019-02-04T04:15:11.538Z,34.75
2019-02-04T04:16:15.069Z,36.70
2019-02-04T04:17:18.603Z,40.73
2019-02-04T04:18:22.115Z,36.28
2019-02-04T04:19:25.611Z,33.98
2019-02-04T04:20:29.127Z,37.45
2019-02-04T04:21:32.578Z,41.92
2019-02-04T04:22:36.082Z,36.73
2019-02-04T04:23:39.584Z,36.40
2019-02-04T04:24:43.088Z,40.43
2019-02-04T04:25:46.789Z,39.60
2019-02-04T04:26:50.252Z,33.10
2019-02-04T04:27:53.740Z,34.38
2019-02-04T04:28:57.189Z,37.95
2019-02-04T04:30:00.624Z,37.70
2019-02-04T04:31:04.217Z,42.62
2019-02-04T04:32:07.747Z,39.85
2019-02-04T04:33:11.249Z,40.23
2019-02-04T04:34:14.693Z,33.70
2019-02-04T04:35:18.269Z,40.12
2019-02-04T04:36:21.701Z,39.35
2019-02-04T04:37:25.215Z,34.92
2019-02-04T04:38:28.735Z,36.38
2019-02-04T04:39:32.339Z,36.38
2019-02-04T04:40:35.788Z,32.90
2019-02-04T04:41:39.300Z,37.25
2019-02-04T04:42:42.909Z,36.90
2019-02-04T04:43:46.368Z,48.68
2019-02-04T04:44:49.801Z,50.73
2019-02-04T04:45:53.300Z,33.15
2019-02-04T04:46:56.729Z,36.73
2019-02-04T04:48:00.197Z,35.43
2019-02-04T04:49:03.628Z,34.65
2019-02-04T04:50:08.802Z,32.93
2019-02-04T04:51:12.226Z,40.78
2019-02-04T04:52:15.659Z,37.33
2019-02-04T04:53:19.305Z,45.17
2019-02-04T04:54:23.099Z,41.63
2019-02-04T04:55:27.281Z,35.63
2019-02-04T04:56:30.788Z,41.85
2019-02-04T04:57:34.220Z,40.48
2019-02-04T04:58:40.583Z,35.17
2019-02-04T04:59:42.866Z,39.00
2019-02-04T05:00:46.446Z,39.45
2019-02-04T05:01:49.884Z,36.88
2019-02-04T05:02:53.385Z,35.00
2019-02-04T05:03:56.923Z,35.88
2019-02-04T05:05:00.348Z,35.17
2019-02-04T05:06:03.902Z,38.58
2019-02-04T05:07:07.407Z,35.80
2019-02-04T05:08:11.282Z,40.70
2019-02-04T05:09:14.753Z,37.67
2019-02-04T05:10:20.782Z,33.73
2019-02-04T05:11:24.227Z,41.40
2019-02-04T05:12:27.782Z,37.17
2019-02-04T05:13:31.167Z,36.63
2019-02-04T05:14:34.696Z,40.23
2019-02-04T05:15:38.149Z,34.85
2019-02-04T05:16:41.591Z,34.55
2019-02-04T05:17:45.157Z,42.70
2019-02-04T05:18:48.599Z,43.73
2019-02-04T05:19:52.062Z,41.00
2019-02-04T05:20:55.533Z,37.55
2019-02-04T05:21:58.967Z,43.23
2019-02-04T05:23:02.775Z,37.20
2019-02-04T05:24:06.212Z,37.17
2019-02-04T05:25:10.305Z,33.02
2019-02-04T05:26:13.778Z,36.90
2019-02-04T05:27:17.207Z,38.80
2019-02-04T05:28:20.634Z,38.48
2019-02-04T05:29:24.138Z,43.30
2019-02-04T05:30:27.658Z,41.18
2019-02-04T05:31:31.159Z,36.10
2019-02-04T05:32:34.752Z,45.50
2019-02-04T05:33:38.245Z,42.70
2019-02-04T05:34:41.698Z,48.23
2019-02-04T05:35:45.162Z,37.38
2019-02-04T05:36:48.892Z,39.70
2019-02-04T05:37:52.830Z,40.50
2019-02-04T05:38:56.325Z,39.88
2019-02-04T05:39:59.769Z,39.27
2019-02-04T05:41:03.376Z,41.13
2019-02-04T05:42:06.805Z,42.17
2019-02-04T05:43:10.245Z,42.62
2019-02-04T05:44:13.676Z,45.52
2019-02-04T05:45:20.843Z,41.73
2019-02-04T05:46:24.288Z,37.65
2019-02-04T05:47:27.751Z,43.85
2019-02-04T05:48:31.164Z,38.78
2019-02-04T05:49:34.772Z,43.50
2019-02-04T05:50:38.217Z,40.20
2019-02-04T05:51:42.061Z,44.35
2019-02-04T05:52:45.717Z,43.68
2019-02-04T05:53:49.146Z,36.17
2019-02-04T05:54:52.590Z,48.70
2019-02-04T05:55:56.038Z,51.70
2019-02-04T05:56:59.516Z,51.75
2019-02-04T05:58:03.030Z,36.03
2019-02-04T05:59:06.715Z,38.42
2019-02-04T06:00:16.465Z,42.15
2019-02-04T06:01:19.941Z,43.65
2019-02-04T06:02:23.436Z,45.08
2019-02-04T06:03:26.948Z,42.23
2019-02-04T06:04:30.457Z,43.33
2019-02-04T06:05:34.031Z,36.38
2019-02-04T06:06:37.683Z,50.28
2019-02-04T06:07:41.314Z,41.53
2019-02-04T06:08:44.743Z,46.23
2019-02-04T06:09:48.207Z,49.33
2019-02-04T06:10:51.633Z,46.58
2019-02-04T06:11:55.078Z,38.10
2019-02-04T06:12:58.546Z,58.20
2019-02-04T06:14:01.969Z,44.40
2019-02-04T06:15:11.396Z,43.42
2019-02-04T06:16:14.891Z,40.85
2019-02-04T06:17:18.357Z,41.40
2019-02-04T06:18:21.887Z,40.98
2019-02-04T06:19:25.330Z,38.08
2019-02-04T06:20:29.015Z,53.60
2019-02-04T06:21:32.477Z,35.98
2019-02-04T06:22:36.206Z,46.20
2019-02-04T06:23:39.867Z,43.33
2019-02-04T06:24:43.284Z,45.73
2019-02-04T06:25:46.846Z,40.38
2019-02-04T06:26:50.287Z,49.75
2019-02-04T06:27:53.832Z,51.10
2019-02-04T06:28:57.348Z,49.85
2019-02-04T06:30:00.781Z,36.10
2019-02-04T06:31:04.433Z,41.00
2019-02-04T06:32:07.935Z,45.28
2019-02-04T06:33:11.452Z,39.98
2019-02-04T06:34:14.985Z,49.77
2019-02-04T06:35:19.060Z,39.18
2019-02-04T06:36:22.784Z,39.03
2019-02-04T06:37:26.214Z,40.95
2019-02-04T06:38:29.677Z,44.85
2019-02-04T06:39:33.117Z,41.37
2019-02-04T06:40:36.727Z,41.63
2019-02-04T06:41:40.202Z,38.98
2019-02-04T06:42:43.800Z,39.55
2019-02-04T06:43:47.256Z,42.00
2019-02-04T06:44:50.681Z,45.38
2019-02-04T06:45:54.112Z,34.50
2019-02-04T06:46:57.548Z,35.03
2019-02-04T06:48:01.077Z,45.50
2019-02-04T06:49:12.013Z,47.50
2019-02-04T06:50:14.692Z,64.35
2019-02-04T06:51:18.373Z,46.33
2019-02-04T06:52:22.082Z,40.15
2019-02-04T06:53:25.542Z,42.67
2019-02-04T06:54:29.120Z,54.30
2019-02-04T06:55:33.717Z,47.88
2019-02-04T06:56:37.156Z,47.17
2019-02-04T06:57:40.585Z,50.63
2019-02-04T06:58:44.050Z,52.73
2019-02-04T06:59:47.529Z,38.90
2019-02-04T07:00:50.971Z,41.63
2019-02-04T07:01:54.559Z,39.13
2019-02-04T07:02:58.149Z,44.30
2019-02-04T07:04:01.678Z,40.58
2019-02-04T07:05:07.428Z,45.92
2019-02-04T07:06:11.278Z,43.17
2019-02-04T07:07:15.272Z,42.83
2019-02-04T07:08:18.767Z,40.95
2019-02-04T07:09:22.214Z,45.70
2019-02-04T07:10:27.434Z,37.75
2019-02-04T07:11:30.931Z,46.35
2019-02-04T07:12:34.367Z,38.02
2019-02-04T07:13:42.135Z,36.23
2019-02-04T07:14:42.973Z,45.78
2019-02-04T07:15:46.569Z,43.55
2019-02-04T07:16:50.007Z,39.00
2019-02-04T07:17:53.443Z,40.17
2019-02-04T07:18:56.877Z,49.20
2019-02-04T07:20:00.739Z,45.35
2019-02-04T07:21:04.753Z,36.20
2019-02-04T07:22:08.367Z,38.50
2019-02-04T07:23:11.811Z,51.48
2019-02-04T07:24:15.256Z,42.50
2019-02-04T07:25:19.391Z,44.18
2019-02-04T07:26:22.890Z,50.80
2019-02-04T07:27:26.325Z,57.15
2019-02-04T07:28:29.902Z,50.45
2019-02-04T07:29:33.348Z,39.45
2019-02-04T07:30:36.814Z,37.35
2019-02-04T07:31:40.319Z,38.95
2019-02-04T07:32:44.019Z,36.75
2019-02-04T07:33:47.737Z,41.65
2019-02-04T07:34:51.218Z,38.95
2019-02-04T07:35:54.764Z,39.42
2019-02-04T07:36:58.177Z,36.80
2019-02-04T07:38:01.683Z,41.53
2019-02-04T07:39:07.548Z,39.85
2019-02-04T07:40:14.022Z,42.45
2019-02-04T07:41:17.481Z,42.93
2019-02-04T07:42:20.921Z,45.35
2019-02-04T07:43:24.419Z,34.75
2019-02-04T07:44:27.930Z,38.45
2019-02-04T07:45:31.542Z,35.40
2019-02-04T07:46:35.074Z,31.77
2019-02-04T07:47:38.569Z,48.73
2019-02-04T07:48:42.345Z,46.50
2019-02-04T07:49:45.808Z,38.85
2019-02-04T07:50:49.246Z,37.93
2019-02-04T07:51:52.690Z,44.50
2019-02-04T07:52:56.282Z,38.60
2019-02-04T07:53:59.779Z,36.05
2019-02-04T07:55:03.355Z,41.55
2019-02-04T07:56:06.973Z,47.58
2019-02-04T07:57:10.567Z,42.08
2019-02-04T07:58:14.071Z,41.85
2019-02-04T07:59:17.562Z,41.75
2019-02-04T08:00:23.357Z,49.15
2019-02-04T08:01:26.887Z,42.73
2019-02-04T08:02:30.504Z,38.53
2019-02-04T08:03:34.539Z,37.08
2019-02-04T08:04:38.039Z,55.20
2019-02-04T08:05:41.545Z,42.35
2019-02-04T08:06:45.008Z,41.58
2019-02-04T08:07:48.518Z,43.83
2019-02-04T08:08:52.025Z,42.93
2019-02-04T08:09:55.560Z,41.73
2019-02-04T08:10:59.052Z,35.98
2019-02-04T08:12:02.582Z,37.65
2019-02-04T08:13:06.252Z,45.08
2019-02-04T08:14:09.782Z,36.93
2019-02-04T08:15:18.819Z,35.73
2019-02-04T08:16:22.430Z,37.15
2019-02-04T08:17:25.971Z,45.05
2019-02-04T08:18:29.884Z,43.65
2019-02-04T08:19:33.319Z,48.35
2019-02-04T08:20:36.823Z,56.75
2019-02-04T08:21:40.257Z,46.02
2019-02-04T08:22:43.860Z,43.63
2019-02-04T08:23:47.326Z,47.58
2019-02-04T08:24:50.826Z,38.50
2019-02-04T08:25:54.250Z,44.77
2019-02-04T08:26:57.756Z,43.85
2019-02-04T08:28:01.289Z,41.90
2019-02-04T08:29:04.969Z,43.60
2019-02-04T08:30:14.318Z,44.48
2019-02-04T08:31:17.970Z,40.40
2019-02-04T08:32:21.400Z,41.48
2019-02-04T08:33:25.231Z,46.00
2019-02-04T08:34:28.667Z,43.65
2019-02-04T08:35:32.244Z,42.20
2019-02-04T08:36:43.488Z,41.83
2019-02-04T08:37:41.029Z,33.95
2019-02-04T08:38:44.479Z,42.03
2019-02-04T08:39:47.980Z,36.88
2019-02-04T08:40:51.492Z,39.40
2019-02-04T08:41:54.919Z,39.23
2019-02-04T08:42:58.431Z,47.03
2019-02-04T08:44:02.087Z,46.40
2019-02-04T08:45:07.593Z,46.65
2019-02-04T08:46:11.164Z,39.67
2019-02-04T08:47:22.809Z,39.35
2019-02-04T08:48:20.280Z,39.73
2019-02-04T08:49:23.797Z,38.90
2019-02-04T08:50:28.281Z,35.45
2019-02-04T08:51:31.709Z,36.13
2019-02-04T08:52:35.146Z,36.73
2019-02-04T08:53:38.605Z,35.23
2019-02-04T08:54:42.061Z,36.35
2019-02-04T08:55:45.495Z,35.35
2019-02-04T08:56:48.927Z,33.80
2019-02-04T08:57:52.497Z,37.13
2019-02-04T08:58:55.956Z,38.10
2019-02-04T08:59:59.399Z,35.40
2019-02-04T09:01:03.416Z,31.35
2019-02-04T09:02:06.918Z,34.73
2019-02-04T09:03:10.497Z,30.92
2019-02-04T09:04:14.022Z,38.13
2019-02-04T09:05:18.413Z,35.45
2019-02-04T09:06:21.916Z,34.95
2019-02-04T09:07:25.410Z,30.82
2019-02-04T09:08:28.843Z,38.15
2019-02-04T09:09:32.373Z,38.40
2019-02-04T09:10:35.805Z,43.83
2019-02-04T09:11:39.303Z,35.60
2019-02-04T09:12:42.867Z,28.65
2019-02-04T09:13:46.577Z,24.05
2019-02-04T09:14:50.165Z,28.07
2019-02-04T09:15:53.628Z,32.75
2019-02-04T09:16:57.070Z,26.77
2019-02-04T09:18:00.838Z,28.00
2019-02-04T09:19:04.530Z,30.25
2019-02-04T09:20:11.258Z,36.10
2019-02-04T09:21:14.766Z,38.38
2019-02-04T09:22:18.223Z,32.60
2019-02-04T09:23:21.711Z,32.25
2019-02-04T09:24:25.130Z,33.67
2019-02-04T09:25:28.727Z,41.40
2019-02-04T09:26:32.233Z,32.20
2019-02-04T09:27:35.937Z,36.98
2019-02-04T09:28:39.434Z,42.73
2019-02-04T09:29:42.949Z,29.32
2019-02-04T09:30:46.537Z,31.40
2019-02-04T09:31:49.964Z,27.93
2019-02-04T09:32:54.083Z,29.98
2019-02-04T09:33:57.583Z,33.60
2019-02-04T09:35:01.018Z,34.50
2019-02-04T09:36:04.612Z,32.88
2019-02-04T09:37:08.119Z,35.33
2019-02-04T09:38:11.621Z,42.45
2019-02-04T09:39:15.191Z,30.70
2019-02-04T09:40:30.138Z,34.67
2019-02-04T09:41:33.676Z,39.03
2019-02-04T09:42:37.156Z,33.48
2019-02-04T09:43:40.878Z,25.72
2019-02-04T09:44:44.311Z,36.93
2019-02-04T09:45:47.792Z,34.78
2019-02-04T09:46:51.271Z,34.35
2019-02-04T09:47:54.853Z,39.00
2019-02-04T09:48:58.366Z,34.88
2019-02-04T09:50:01.804Z,37.48
2019-02-04T09:51:05.422Z,39.38
2019-02-04T09:52:08.865Z,29.90
2019-02-04T09:53:12.359Z,35.17
2019-02-04T09:54:15.859Z,32.23
2019-02-04T09:55:22.077Z,29.25
2019-02-04T09:56:25.598Z,27.87
2019-02-04T09:57:29.338Z,28.05
2019-02-04T09:58:48.429Z,25.55
2019-02-04T09:59:51.992Z,27.52
2019-02-04T10:00:55.926Z,29.90
2019-02-04T10:01:59.455Z,25.37
2019-02-04T10:03:03.123Z,35.65
2019-02-04T10:04:06.696Z,31.52
2019-02-04T10:05:12.871Z,40.90
2019-02-04T10:06:16.366Z,36.50
2019-02-04T10:07:19.975Z,28.67
2019-02-04T10:08:23.542Z,24.02
2019-02-04T10:09:34.522Z,22.73
2019-02-04T10:10:38.095Z,21.35
2019-02-04T10:11:41.611Z,27.60
2019-02-04T10:12:45.235Z,25.50
2019-02-04T10:13:48.869Z,27.42
2019-02-04T10:14:52.387Z,26.50
2019-02-04T10:15:55.860Z,22.05
2019-02-04T10:16:59.313Z,26.95
2019-02-04T10:18:03.385Z,23.00
2019-02-04T10:19:06.991Z,29.55
2019-02-04T10:20:13.841Z,24.47
2019-02-04T10:21:17.560Z,28.65
2019-02-04T10:22:21.050Z,39.58
2019-02-04T10:23:24.679Z,28.62
2019-02-04T10:24:28.145Z,26.80
2019-02-04T10:25:34.310Z,27.60
2019-02-04T10:26:37.748Z,26.73
2019-02-04T10:27:41.287Z,27.40
2019-02-04T10:28:44.828Z,27.93
2019-02-04T10:29:48.310Z,25.80
2019-02-04T10:30:51.741Z,24.65
2019-02-04T10:31:55.189Z,36.60
2019-02-04T10:32:59.039Z,26.50
2019-02-04T10:34:02.535Z,31.42
2019-02-04T10:35:16.652Z,30.65
2019-02-04T10:36:13.556Z,28.47
2019-02-04T10:37:17.163Z,31.23
2019-02-04T10:38:20.676Z,27.20
2019-02-04T10:39:24.223Z,33.58
2019-02-04T10:40:29.761Z,26.80
2019-02-04T10:41:33.337Z,22.87
2019-02-04T10:42:36.878Z,20.08
2019-02-04T10:43:40.543Z,28.35
2019-02-04T10:44:44.125Z,23.35
2019-02-04T10:45:47.667Z,20.97
2019-02-04T10:46:51.191Z,25.15
2019-02-04T10:47:54.927Z,21.27
2019-02-04T10:48:58.819Z,24.50
2019-02-04T10:50:02.362Z,25.60
2019-02-04T10:51:05.977Z,28.27
2019-02-04T10:52:09.476Z,28.92
2019-02-04T10:53:13.072Z,20.23
2019-02-04T10:54:16.473Z,28.05
2019-02-04T10:55:20.054Z,20.82
2019-02-04T10:56:23.570Z,26.07
2019-02-04T10:57:27.064Z,25.60
2019-02-04T10:58:30.603Z,28.05
2019-02-04T10:59:34.059Z,23.38
2019-02-04T11:00:38.514Z,27.15
2019-02-04T11:01:42.133Z,24.27
2019-02-04T11:02:46.194Z,34.88
2019-02-04T11:03:49.648Z,20.95
2019-02-04T11:04:53.114Z,21.10
2019-02-04T11:05:56.591Z,22.17
2019-02-04T11:07:00.154Z,22.30
2019-02-04T11:08:04.139Z,24.32
2019-02-04T11:09:08.915Z,23.77
2019-02-04T11:10:15.466Z,26.20
2019-02-04T11:11:18.932Z,26.52
2019-02-04T11:12:22.403Z,32.28
2019-02-04T11:13:25.877Z,22.82
2019-02-04T11:14:29.562Z,25.35
2019-02-04T11:15:33.316Z,20.90
2019-02-04T11:16:37.161Z,22.30
2019-02-04T11:17:41.001Z,22.40
2019-02-04T11:18:44.548Z,21.50
2019-02-04T11:19:48.003Z,28.55
2019-02-04T11:20:58.163Z,24.18
2019-02-04T11:21:56.916Z,25.50
2019-02-04T11:23:00.583Z,19.82
2019-02-04T11:24:04.671Z,19.55
2019-02-04T11:25:08.975Z,20.17
2019-02-04T11:26:12.576Z,19.80
2019-02-04T11:27:16.102Z,20.17
2019-02-04T11:28:19.683Z,23.57
2019-02-04T11:29:23.270Z,24.00
2019-02-04T11:30:29.772Z,21.60
2019-02-04T11:31:33.290Z,21.45
2019-02-04T11:32:37.143Z,22.73
2019-02-04T11:33:40.782Z,23.45
2019-02-04T11:34:44.232Z,18.73
2019-02-04T11:35:47.877Z,20.17
2019-02-04T11:36:51.374Z,23.52
2019-02-04T11:37:57.794Z,20.32
2019-02-04T11:39:01.259Z,26.07
2019-02-04T11:40:07.708Z,37.90
2019-02-04T11:41:11.217Z,17.55
2019-02-04T11:42:14.679Z,49.77
2019-02-04T11:43:18.156Z,31.68
2019-02-04T11:44:21.768Z,19.57
2019-02-04T11:45:25.601Z,20.65
2019-02-04T11:46:29.010Z,24.40
2019-02-04T11:47:32.619Z,18.30
2019-02-04T11:48:36.581Z,21.30
2019-02-04T11:49:40.073Z,21.77
2019-02-04T11:50:43.684Z,22.80
2019-02-04T11:51:47.125Z,17.02
2019-02-04T11:52:50.637Z,19.98
2019-02-04T11:53:54.253Z,22.02
2019-02-04T11:54:57.697Z,36.50
2019-02-04T11:56:01.208Z,39.00
2019-02-04T11:57:04.733Z,34.70
2019-02-04T11:58:08.409Z,35.40
2019-02-04T11:59:11.836Z,21.52
2019-02-04T12:00:18.281Z,23.12
2019-02-04T12:01:21.849Z,23.57
2019-02-04T12:02:34.384Z,20.50
2019-02-04T12:03:31.004Z,22.58
2019-02-04T12:04:34.510Z,20.82
2019-02-04T12:05:39.117Z,19.95
2019-02-04T12:06:42.936Z,22.50
2019-02-04T12:07:52.477Z,21.37
2019-02-04T12:08:58.314Z,22.95
2019-02-04T12:10:01.886Z,28.45
2019-02-04T12:11:06.331Z,28.17
2019-02-04T12:12:10.389Z,32.15
2019-02-04T12:13:13.972Z,28.75
2019-02-04T12:14:17.382Z,28.30
2019-02-04T12:15:22.606Z,23.02
2019-02-04T12:16:26.116Z,23.27
2019-02-04T12:17:29.615Z,26.42
2019-02-04T12:18:33.129Z,23.55
2019-02-04T12:19:36.947Z,17.70
2019-02-04T12:20:40.450Z,17.05
2019-02-04T12:21:43.954Z,21.37
2019-02-04T12:22:49.022Z,19.15
2019-02-04T12:23:52.543Z,15.80
2019-02-04T12:24:55.992Z,18.87
2019-02-04T12:25:59.491Z,15.20
2019-02-04T12:27:02.927Z,22.42
2019-02-04T12:28:06.600Z,20.45
2019-02-04T12:29:10.116Z,18.17
2019-02-04T12:30:19.575Z,21.68
2019-02-04T12:31:23.107Z,20.55
2019-02-04T12:32:26.599Z,23.55
2019-02-04T12:33:30.113Z,23.20
2019-02-04T12:34:33.853Z,19.02
2019-02-04T12:35:37.420Z,26.25
2019-02-04T12:36:43.750Z,26.05
2019-02-04T12:37:47.417Z,20.12
2019-02-04T12:38:51.021Z,20.50
2019-02-04T12:39:54.670Z,17.75
2019-02-04T12:40:58.120Z,19.35
2019-02-04T12:42:01.628Z,26.10
2019-02-04T12:43:05.485Z,22.80
2019-02-04T12:44:09.124Z,22.07
2019-02-04T12:45:26.735Z,23.95
2019-02-04T12:46:30.165Z,32.48
2019-02-04T12:47:33.681Z,22.30
2019-02-04T12:48:37.191Z,19.57
2019-02-04T12:49:40.707Z,26.00
2019-02-04T12:50:44.311Z,30.37
2019-02-04T12:51:48.162Z,26.20
2019-02-04T12:52:51.755Z,23.40
2019-02-04T12:53:55.220Z,25.30
2019-02-04T12:54:58.631Z,25.23
2019-02-04T12:56:02.083Z,33.35
2019-02-04T12:57:05.663Z,19.45
2019-02-04T12:58:09.246Z,23.02
2019-02-04T12:59:12.832Z,23.12
2019-02-04T13:00:21.463Z,20.95
2019-02-04T13:01:24.993Z,21.42
2019-02-04T13:02:28.562Z,22.90
2019-02-04T13:03:31.990Z,25.50
2019-02-04T13:04:35.533Z,23.85
2019-02-04T13:05:41.526Z,29.50
2019-02-04T13:06:46.921Z,38.80
2019-02-04T13:07:50.331Z,25.30
2019-02-04T13:08:54.015Z,25.90
2019-02-04T13:09:57.522Z,22.50
2019-02-04T13:11:00.963Z,23.62
2019-02-04T13:12:04.585Z,19.15
2019-02-04T13:13:10.044Z,22.17
2019-02-04T13:14:13.555Z,28.90
2019-02-04T13:15:24.821Z,25.77
2019-02-04T13:16:28.385Z,22.00
2019-02-04T13:17:31.916Z,21.00
2019-02-04T13:18:35.413Z,26.93
2019-02-04T13:19:40.075Z,22.17
2019-02-04T13:20:43.646Z,22.98
2019-02-04T13:21:47.176Z,21.85
2019-02-04T13:22:51.289Z,21.05
2019-02-04T13:23:55.056Z,21.52
2019-02-04T13:24:58.765Z,21.10
2019-02-04T13:26:02.213Z,21.23
2019-02-04T13:27:05.806Z,24.82
2019-02-04T13:28:12.509Z,26.25
2019-02-04T13:29:16.087Z,21.20
2019-02-04T13:30:22.099Z,22.87
2019-02-04T13:31:25.601Z,23.22
2019-02-04T13:32:29.049Z,30.97
2019-02-04T13:33:32.577Z,27.00
2019-02-04T13:34:36.014Z,27.50
2019-02-04T13:35:39.883Z,21.52
2019-02-04T13:36:43.320Z,25.00
2019-02-04T13:37:46.858Z,27.35
2019-02-04T13:38:50.384Z,22.82
2019-02-04T13:39:54.200Z,22.67
2019-02-04T13:41:07.460Z,20.92
2019-02-04T13:42:02.883Z,22.35
2019-02-04T13:43:06.808Z,23.55